• location
  • image
mod_vvisit_countermod_vvisit_countermod_vvisit_countermod_vvisit_countermod_vvisit_countermod_vvisit_counter
mod_vvisit_counterToday418
mod_vvisit_counterYesterday682
mod_vvisit_counterThis week1943
mod_vvisit_counterLast week4292
mod_vvisit_counterThis month17022
mod_vvisit_counterLast month19525
mod_vvisit_counterAll days890871

We have: 70 guests, 1 bots online
Your IP: 54.81.166.196
 , 
Today: Apr 25, 2018
Airport / News / May 2015

May 2015

28 May, 2015

Aircraft IL-76TD from Uzbekistan landed at Siauliai International Airport. The airport management equipment made in Lithuania was flown to Uzbekistan. The freight forwarding services were provided by JSC  “Rikusta“, Lithuanian company.

The spokesperson of “Rikusta“ said that the project will  continue and in the near future there will be more flights to Siauliai.  

IL76 01IL76 02

Today

Wednesday, 25 April 2018

Aviation Weather Forecast

[source: ADDS]
METAR
EYSA 251220Z 21008KT 9999 -RA FEW010 BKN013 OVC048 09/07 Q1003 GRN NOSIG =
TAF
TAF EYSA 251112Z 2512/2521 VRB05KT 5000 RA BR SCT010 OVC020 TEMPO 2512/2515 SCT005 TEMPO 2515/2518 3000 SHRA BKN005 BKN015CB BECMG 2518/2519 3000 BR BKN005 OVC010 TEMPO 2519/2521 1500 BKN003 =
SR / SS: 03:00 / 17:51 UTC (EYSA 2018-04-25)

Search

Who's Online

We have 71 guests online

tic logo en